Time;durP1;ratioP1;P1;durP2;ratioP2;P2;SDS_P1;SDS_P2;PMS_P1;PMS_P2;Temp;Humidity;BMP_temperature;BMP_pressure;BME280_temperature;BME280_humidity;BME280_pressure;Samples;Min_cycle;Max_cycle;Signal;HPM_P1;HPM_P2
2023/03/05 00:03:29;;;;;;;28.60;11.13;;;;;;;-1.36;93.60;100419.83;5140763;55;1138955;-83
2023/03/05 00:08:34;;;;;;;27.40;10.37;;;;;;;-1.51;94.17;100418.55;5095740;55;1141101;-75
2023/03/05 00:13:41;;;;;;;27.13;10.00;;;;;;;-1.56;94.48;100411.38;5028196;56;1141123;-75
2023/03/05 00:18:47;;;;;;;28.10;9.27;;;;;;;-1.56;94.80;100407.03;5043737;56;1140942;-77
2023/03/05 00:23:54;;;;;;;23.73;9.18;;;;;;;-1.52;95.04;100403.44;5042581;56;1139015;-74
2023/03/05 00:29:00;;;;;;;35.93;12.23;;;;;;;-1.48;95.32;100388.64;5108547;56;1138942;-76
2023/03/05 00:34:11;;;;;;;77.00;26.03;;;;;;;-1.55;95.46;100372.44;5124182;56;1140971;-81
2023/03/05 00:39:17;;;;;;;90.33;32.37;;;;;;;-1.48;95.52;100379.56;5155810;55;1141040;-80
2023/03/05 00:44:23;;;;;;;81.00;27.50;;;;;;;-1.48;95.71;100378.27;5173877;55;1140899;-76
2023/03/05 00:49:29;;;;;;;55.90;18.67;;;;;;;-1.52;95.81;100372.77;5193810;55;1140916;-80
2023/03/05 00:54:34;;;;;;;51.27;17.00;;;;;;;-1.61;96.12;100366.13;5173901;55;1140802;-75
2023/03/05 00:59:40;;;;;;;38.97;15.60;;;;;;;-1.62;96.56;100360.98;5175875;55;1141054;-82
2023/03/05 01:04:46;;;;;;;32.07;10.53;;;;;;;-1.65;96.75;100357.18;5214904;55;1141014;-78
2023/03/05 01:09:55;;;;;;;32.87;11.00;;;;;;;-1.70;96.99;100351.30;5092303;55;1141003;-85
2023/03/05 01:15:01;;;;;;;31.75;10.85;;;;;;;-1.80;97.16;100345.08;5034106;56;1141268;-72
2023/03/05 01:20:08;;;;;;;30.95;10.25;;;;;;;-1.86;97.66;100343.98;5111594;56;1141065;-74
2023/03/05 01:25:16;;;;;;;22.03;8.30;;;;;;;-1.88;98.20;100341.03;5100319;55;1141092;-81
2023/03/05 01:30:21;;;;;;;14.70;5.40;;;;;;;-1.90;98.46;100335.89;5034844;56;1138871;-80
2023/03/05 01:35:28;;;;;;;14.43;6.13;;;;;;;-1.95;99.06;100335.61;5121704;55;1139147;-80
2023/03/05 01:40:34;;;;;;;10.83;4.53;;;;;;;-1.96;99.32;100331.32;5148300;55;1139030;-75
2023/03/05 01:46:16;;;;;;;13.07;3.60;;;;;;;-1.97;99.59;100323.14;5169877;54;1138878;-85
2023/03/05 01:51:26;;;;;;;14.47;4.30;;;;;;;-2.00;100.00;100315.48;5113698;55;1138979;-86
2023/03/05 01:56:32;;;;;;;14.80;4.97;;;;;;;-2.05;100.00;100309.58;5113972;55;1141320;-80
2023/03/05 02:01:43;;;;;;;12.80;4.83;;;;;;;-2.07;100.00;100308.33;5115291;55;1140935;-82
2023/03/05 02:06:49;;;;;;;15.57;5.03;;;;;;;-2.08;100.00;100294.97;5132406;55;1140942;-78
2023/03/05 02:11:56;;;;;;;19.40;6.43;;;;;;;-2.11;100.00;100287.28;5148079;55;1140993;-76
2023/03/05 02:17:02;;;;;;;17.23;5.47;;;;;;;-2.08;100.00;100288.48;5118522;55;1141165;-81
2023/03/05 02:22:14;;;;;;;19.27;6.03;;;;;;;-2.10;100.00;100279.91;5129624;55;1141227;-79
2023/03/05 02:27:26;;;;;;;15.03;5.17;;;;;;;-2.11;100.00;100256.19;5163402;55;1140898;-80
2023/03/05 02:32:33;;;;;;;;;;;;;;;-2.07;100.00;100253.91;5156443;55;1140804;-78
2023/03/05 02:37:40;;;;;;;21.12;7.20;;;;;;;-2.10;100.00;100264.36;5103299;55;976228;-81
2023/03/05 02:42:46;;;;;;;15.15;7.22;;;;;;;-2.10;100.00;100264.36;5059150;55;1138848;-80
2023/03/05 02:47:54;;;;;;;28.83;8.37;;;;;;;-2.12;100.00;100246.72;5032537;56;1141056;-82
2023/03/05 02:53:00;;;;;;;16.83;7.00;;;;;;;-2.04;100.00;100243.47;5110652;55;1149723;-82
2023/03/05 02:58:06;;;;;;;15.48;4.87;;;;;;;-1.98;100.00;100231.59;5154593;55;1140739;-82
2023/03/05 03:03:12;;;;;;;11.40;5.03;;;;;;;-1.95;100.00;100219.00;5196138;55;1140910;-78
2023/03/05 03:08:18;;;;;;;12.43;4.60;;;;;;;-1.88;100.00;100225.25;5155954;55;1141012;-85
2023/03/05 03:13:25;;;;;;;12.07;5.07;;;;;;;-1.88;100.00;100219.22;5101140;56;1141155;-77
2023/03/05 03:18:33;;;;;;;14.27;5.07;;;;;;;-1.86;100.00;100211.80;5069457;55;1140887;-82
2023/03/05 03:23:39;;;;;;;9.17;4.07;;;;;;;-1.84;100.00;100206.57;5166838;55;1141175;-81
2023/03/05 03:28:47;;;;;;;16.07;5.10;;;;;;;-1.86;100.00;100200.14;5012903;56;1138766;-81
2023/03/05 03:33:53;;;;;;;8.37;3.67;;;;;;;-1.82;100.00;100190.05;5084732;56;1140979;-77
2023/03/05 03:38:58;;;;;;;10.10;4.40;;;;;;;-1.78;100.00;100181.73;5128600;55;1138901;-78
2023/03/05 03:44:07;;;;;;;11.53;4.65;;;;;;;-1.75;100.00;100175.60;5137487;56;1140821;-80
2023/03/05 03:49:16;;;;;;;15.43;5.47;;;;;;;-1.72;100.00;100171.17;5116992;56;1140800;-86
2023/03/05 03:54:23;;;;;;;14.47;5.27;;;;;;;-1.70;100.00;100162.05;5114644;55;1140833;-74
2023/03/05 03:59:29;;;;;;;12.37;4.60;;;;;;;-1.66;100.00;100146.77;5137866;55;1140676;-79
2023/03/05 04:04:35;;;;;;;11.23;5.27;;;;;;;-1.63;100.00;100141.48;5136006;55;1140792;-79
2023/03/05 04:09:41;;;;;;;9.37;4.20;;;;;;;-1.59;100.00;100137.90;5096671;56;1148708;-79
2023/03/05 04:14:48;;;;;;;14.23;5.37;;;;;;;-1.56;100.00;100128.28;5052580;56;1138733;-78
2023/03/05 04:19:54;;;;;;;20.90;6.60;;;;;;;-1.52;100.00;100127.70;5053522;55;1141128;-80
2023/03/05 04:25:02;;;;;;;19.00;7.07;;;;;;;-1.48;100.00;100118.92;5118905;55;1140986;-83
2023/03/05 04:30:09;;;;;;;16.43;6.53;;;;;;;-1.47;100.00;100101.17;5141091;56;1140808;-79
2023/03/05 04:35:14;;;;;;;13.30;4.67;;;;;;;-1.40;100.00;100099.22;5152696;55;1141294;-75
2023/03/05 04:40:20;;;;;;;17.17;6.67;;;;;;;-1.37;100.00;100092.15;5107914;56;1140837;-81
2023/03/05 04:45:26;;;;;;;18.47;6.47;;;;;;;-1.35;100.00;100091.65;5154922;54;1141057;-82
2023/03/05 04:50:33;;;;;;;13.77;4.90;;;;;;;-1.30;100.00;100081.97;5147546;55;1141009;-77
2023/03/05 04:55:38;;;;;;;12.40;5.25;;;;;;;-1.32;100.00;100075.13;5218755;55;1140845;-84
2023/03/05 05:00:44;;;;;;;10.70;4.63;;;;;;;-1.32;100.00;100069.95;5239173;55;1140837;-85
2023/03/05 05:05:56;;;;;;;15.80;5.03;;;;;;;-1.34;100.00;100067.85;5218176;55;1140780;-78
2023/03/05 05:11:06;;;;;;;18.37;5.67;;;;;;;-1.35;100.00;100064.86;5077152;55;1140888;-80
2023/03/05 05:16:12;;;;;;;15.17;6.00;;;;;;;-1.32;100.00;100063.46;5066771;56;1140919;-77
2023/03/05 05:21:19;;;;;;;17.73;6.87;;;;;;;-1.32;100.00;100063.46;5075047;56;1140867;-85
2023/03/05 05:26:25;;;;;;;17.33;6.17;;;;;;;-1.31;100.00;100057.37;5181793;55;1141248;-82
2023/03/05 05:31:31;;;;;;;11.07;4.43;;;;;;;-1.31;100.00;100057.37;5226992;55;1140887;-77
2023/03/05 05:36:36;;;;;;;10.73;4.40;;;;;;;-1.31;100.00;100045.25;5185649;55;1141021;-78
2023/03/05 05:41:42;;;;;;;27.00;9.83;;;;;;;-1.29;100.00;100047.79;5046459;56;1140918;-77
2023/03/05 05:46:48;;;;;;;15.03;6.80;;;;;;;-1.29;100.00;100059.02;5149792;56;1140976;-85
2023/03/05 05:51:54;;;;;;;14.65;5.95;;;;;;;-1.30;100.00;100052.58;5129446;56;1140963;-80
2023/03/05 05:56:59;;;;;;;16.87;5.87;;;;;;;-1.27;100.00;100049.43;5110612;55;1141031;-78
2023/03/05 06:02:07;;;;;;;14.23;5.15;;;;;;;-1.21;100.00;100045.75;5130544;55;1140881;-77
2023/03/05 06:07:13;;;;;;;13.73;6.00;;;;;;;-1.17;100.00;100039.09;5148665;55;1141037;-82
2023/03/05 06:12:19;;;;;;;12.13;4.67;;;;;;;-1.13;100.00;100043.28;5119711;55;1141074;-83
2023/03/05 06:17:27;;;;;;;16.50;6.20;;;;;;;-1.14;100.00;100046.77;5150690;56;1141084;-83
2023/03/05 06:22:38;;;;;;;14.10;6.17;;;;;;;-1.21;100.00;100040.11;5200980;55;1141254;-84
2023/03/05 06:27:44;;;;;;;14.07;4.65;;;;;;;-1.26;100.00;100045.09;5151537;55;1140893;-81
2023/03/05 06:32:50;;;;;;;15.43;5.63;;;;;;;-1.29;100.00;100025.29;5137145;56;1141068;-79
2023/03/05 06:37:58;;;;;;;13.13;5.80;;;;;;;-1.28;100.00;100026.98;5116741;56;1140793;-82
2023/03/05 06:43:03;;;;;;;22.27;5.73;;;;;;;-1.25;100.00;100032.06;5117257;55;1140850;-80
2023/03/05 06:48:10;;;;;;;15.07;6.17;;;;;;;-1.23;100.00;100028.97;5094022;56;1140930;-81
2023/03/05 06:53:16;;;;;;;20.73;8.63;;;;;;;-1.16;100.00;100028.27;5090635;56;1140874;-84
2023/03/05 06:58:23;;;;;;;13.07;5.57;;;;;;;-1.16;100.00;100028.27;5097229;56;1140972;-82
2023/03/05 07:03:29;;;;;;;8.50;4.17;;;;;;;-1.13;100.00;100034.20;5166474;55;1140836;-81
2023/03/05 07:08:35;;;;;;;8.83;3.23;;;;;;;-1.10;100.00;100038.43;5145766;54;1138758;-77
2023/03/05 07:13:42;;;;;;;7.60;2.90;;;;;;;-1.11;100.00;100032.84;5089015;56;1138842;-72
2023/03/05 07:18:48;;;;;;;12.47;3.85;;;;;;;-1.11;100.00;100028.50;5099229;55;1139164;-78
2023/03/05 07:23:56;;;;;;;14.73;5.25;;;;;;;-1.14;100.00;100031.66;5160800;55;1140863;-85
2023/03/05 07:29:03;;;;;;;21.67;9.13;;;;;;;-1.15;100.00;100024.77;5109880;55;1141071;-69
2023/03/05 07:34:10;;;;;;;8.83;3.20;;;;;;;-1.19;100.00;100025.33;5197746;55;1140931;-71
2023/03/05 07:39:17;;;;;;;9.97;3.50;;;;;;;-1.20;100.00;100020.20;5187587;55;1138837;-69
2023/03/05 07:44:24;;;;;;;10.68;4.00;;;;;;;-1.19;100.00;100015.41;5197074;55;1138646;-69
2023/03/05 07:49:30;;;;;;;8.20;3.87;;;;;;;-1.18;100.00;100006.27;5155242;55;1140795;-71
2023/03/05 07:54:40;;;;;;;5.97;4.17;;;;;;;-1.17;100.00;99996.73;5182446;55;1138964;-66
2023/03/05 07:59:46;;;;;;;16.87;6.40;;;;;;;-1.15;100.00;99994.94;5219155;54;1136856;-66
2023/03/05 08:04:52;;;;;;;15.87;6.27;;;;;;;-1.11;100.00;99988.73;5198474;55;1138849;-66
2023/03/05 08:09:58;;;;;;;14.70;6.90;;;;;;;-1.03;100.00;99984.08;5157059;55;1138905;-68
2023/03/05 08:15:05;;;;;;;9.07;3.60;;;;;;;-0.98;100.00;99982.61;5151744;55;1142010;-66
2023/03/05 08:20:13;;;;;;;19.67;9.08;;;;;;;-0.96;100.00;99978.20;5165334;55;1136615;-67
2023/03/05 08:25:19;;;;;;;10.60;4.20;;;;;;;-0.97;100.00;99976.52;5166022;55;1138784;-66
2023/03/05 08:30:26;;;;;;;8.03;4.70;;;;;;;-0.99;100.00;99970.53;5165201;55;1138754;-68
2023/03/05 08:35:32;;;;;;;12.23;3.87;;;;;;;-0.99;100.00;99968.78;5155797;55;1136898;-66
2023/03/05 08:40:37;;;;;;;3.30;2.20;;;;;;;-0.99;100.00;99961.45;5159074;55;1138724;-67
2023/03/05 08:45:43;;;;;;;7.95;4.70;;;;;;;-0.98;100.00;99956.66;5158869;55;1136792;-71
2023/03/05 08:50:49;;;;;;;6.60;2.73;;;;;;;-0.96;100.00;99950.50;5177987;55;1136658;-70
2023/03/05 08:55:59;;;;;;;9.37;3.10;;;;;;;-0.89;100.00;99947.20;5157141;55;1136672;-65
2023/03/05 09:01:06;;;;;;;14.27;5.03;;;;;;;-0.87;100.00;99943.64;5162874;55;1136862;-67
2023/03/05 09:06:13;;;;;;;6.97;3.37;;;;;;;-0.91;100.00;99926.48;5208657;55;1138790;-68
2023/03/05 09:11:19;;;;;;;11.30;5.03;;;;;;;-0.83;100.00;99931.39;5130640;54;1136730;-64
2023/03/05 09:16:25;;;;;;;8.27;3.40;;;;;;;-0.82;100.00;99934.38;5143203;55;1138899;-70
2023/03/05 09:21:30;;;;;;;7.10;3.17;;;;;;;-0.79;100.00;99936.41;5215805;55;1136729;-70
2023/03/05 09:26:36;;;;;;;9.83;4.30;;;;;;;-0.77;100.00;99929.40;5197987;55;1136756;-69
2023/03/05 09:31:42;;;;;;;8.78;3.58;;;;;;;-0.73;100.00;99926.20;5208310;55;1136792;-69
2023/03/05 09:36:48;;;;;;;8.00;4.17;;;;;;;-0.70;100.00;99927.38;5215419;55;1136890;-67
2023/03/05 09:42:16;;;;;;;7.30;3.57;;;;;;;-0.66;100.00;99921.61;5196673;55;1136781;-68
2023/03/05 09:47:42;;;;;;;7.17;4.50;;;;;;;-0.60;100.00;99925.23;5179709;55;1136577;-70
2023/03/05 09:52:54;;;;;;;12.40;5.20;;;;;;;-0.54;100.00;99927.14;5209663;55;1136634;-69
2023/03/05 09:58:13;;;;;;;4.72;3.33;;;;;;;-0.45;100.00;99923.30;5229548;55;1138665;-67
2023/03/05 10:03:32;;;;;;;10.43;3.85;;;;;;;-0.34;100.00;99918.97;5198019;55;1136689;-69
2023/03/05 10:09:04;;;;;;;16.93;3.80;;;;;;;-0.25;100.00;99915.52;5154286;55;1138791;-68
2023/03/05 10:14:26;;;;;;;13.70;3.42;;;;;;;-0.16;100.00;99914.29;5188080;55;1138854;-67
2023/03/05 10:20:01;;;;;;;6.97;3.43;;;;;;;-0.06;100.00;99915.11;5183705;55;1138733;-67
2023/03/05 10:25:48;;;;;;;11.87;4.73;;;;;;;0.04;100.00;99912.94;5162784;55;1136980;-75
2023/03/05 10:31:36;;;;;;;15.97;6.37;;;;;;;0.07;100.00;99914.56;5181426;54;1136752;-81
2023/03/05 10:37:07;;;;;;;13.77;3.97;;;;;;;0.11;100.00;99911.77;5166562;55;1137043;-80
2023/03/05 10:42:47;;;;;;;15.72;4.90;;;;;;;0.21;100.00;99913.04;5195754;55;1136786;-78
2023/03/05 10:48:30;;;;;;;14.07;3.70;;;;;;;0.27;100.00;99910.17;5038577;56;1136757;-66
2023/03/05 10:53:46;;;;;;;10.53;2.60;;;;;;;0.34;100.00;99913.32;5082549;56;1136940;-69
2023/03/05 10:58:53;;;;;;;10.90;4.67;;;;;;;0.36;100.00;99911.50;5079153;56;1136753;-67
2023/03/05 11:04:03;;;;;;;15.83;5.50;;;;;;;0.41;100.00;99917.34;5129544;56;1136614;-67
2023/03/05 11:09:27;;;;;;;10.58;7.15;;;;;;;0.48;100.00;99920.04;5169207;55;1136605;-69
2023/03/05 11:14:34;;;;;;;15.80;5.67;;;;;;;0.59;100.00;99918.27;5105152;55;1136854;-68
2023/03/05 11:19:40;;;;;;;11.33;8.23;;;;;;;0.72;100.00;99923.73;5076985;55;1136801;-69
2023/03/05 11:25:11;;;;;;;23.10;15.72;;;;;;;0.79;100.00;99932.47;5083623;55;1136740;-69
2023/03/05 11:30:30;;;;;;;25.25;12.05;;;;;;;0.84;100.00;99927.91;5216141;55;1138929;-72
2023/03/05 11:35:40;;;;;;;41.37;19.23;;;;;;;0.93;100.00;99917.50;5197970;55;1138923;-66
2023/03/05 11:40:47;;;;;;;34.55;17.95;;;;;;;1.08;100.00;99916.77;5170530;55;1138966;-69
2023/03/05 11:45:57;;;;;;;66.90;38.93;;;;;;;1.17;100.00;99913.73;5063781;56;1138843;-69
2023/03/05 11:51:10;;;;;;;12.37;5.33;;;;;;;1.18;100.00;99912.81;5042894;56;1138768;-67
2023/03/05 11:56:34;;;;;;;11.00;3.70;;;;;;;1.17;100.00;99909.83;5088062;55;1136660;-69
2023/03/05 12:01:45;;;;;;;5.58;3.17;;;;;;;1.17;100.00;99907.68;5073493;55;1136776;-70
2023/03/05 12:06:54;;;;;;;14.47;6.83;;;;;;;1.14;100.00;99910.42;5064294;57;1134574;-67
2023/03/05 12:12:29;;;;;;;11.83;4.27;;;;;;;1.14;100.00;99905.22;5129371;55;1136566;-67
2023/03/05 12:17:41;;;;;;;10.63;4.20;;;;;;;1.14;100.00;99903.91;5044213;56;1136649;-63
2023/03/05 12:22:47;;;;;;;10.85;5.03;;;;;;;1.12;100.00;99898.78;5218461;55;1136895;-63
2023/03/05 12:27:53;;;;;;;7.60;3.37;;;;;;;1.20;100.00;99902.33;5192400;55;1136831;-73
2023/03/05 12:32:59;;;;;;;9.33;3.77;;;;;;;1.24;100.00;99896.02;5146873;55;1134724;-70
2023/03/05 12:38:14;;;;;;;8.10;4.00;;;;;;;1.23;100.00;99889.97;5161346;55;1134639;-70
2023/03/05 12:43:33;;;;;;;12.17;4.53;;;;;;;1.26;100.00;99888.52;5157836;55;1134491;-71
2023/03/05 12:48:44;;;;;;;10.10;3.63;;;;;;;1.36;100.00;99883.27;5044234;57;1136548;-69
2023/03/05 12:53:52;;;;;;;1.93;1.73;;;;;;;1.46;100.00;99875.81;5044203;57;1136627;-72
2023/03/05 12:59:00;;;;;;;7.43;3.33;;;;;;;1.54;100.00;99876.72;5064098;57;1134759;-65
2023/03/05 13:04:23;;;;;;;5.35;2.55;;;;;;;1.58;100.00;99876.48;5058947;57;1134663;-67
2023/03/05 13:09:35;;;;;;;14.97;7.83;;;;;;;1.63;100.00;99875.80;5142527;55;1134854;-66
2023/03/05 13:14:50;;;;;;;50.00;26.77;;;;;;;1.78;100.00;99884.60;4949989;57;1136731;-68
2023/03/05 13:19:58;;;;;;;5.30;3.10;;;;;;;2.02;100.00;99884.61;4968733;58;1138846;-71
2023/03/05 13:25:19;;;;;;;4.70;2.58;;;;;;;2.13;100.00;99875.39;4904016;58;1134679;-71
2023/03/05 13:30:28;;;;;;;3.70;1.35;;;;;;;2.14;100.00;99870.07;4889596;57;1134701;-71
2023/03/05 13:35:36;;;;;;;6.70;2.65;;;;;;;2.12;100.00;99869.34;4946770;57;1135057;-71
2023/03/05 13:40:42;;;;;;;6.13;2.00;;;;;;;2.20;100.00;99868.45;4909590;56;1134695;-71
2023/03/05 13:45:55;;;;;;;9.10;2.43;;;;;;;2.24;100.00;99871.28;4979541;57;1134683;-70
2023/03/05 13:51:05;;;;;;;9.10;2.15;;;;;;;1.98;100.00;99850.97;5023158;57;1134602;-71
2023/03/05 13:56:15;;;;;;;8.43;2.90;;;;;;;1.98;100.00;99850.97;5031205;57;1134471;-68
2023/03/05 14:01:42;;;;;;;4.30;2.27;;;;;;;1.90;100.00;99853.97;4983207;56;1134516;-67
2023/03/05 14:06:55;;;;;;;5.83;2.30;;;;;;;1.83;100.00;99847.87;4968074;57;1134765;-69
2023/03/05 14:12:34;;;;;;;5.95;2.37;;;;;;;1.77;100.00;99847.72;4960327;58;1134831;-69
2023/03/05 14:17:44;;;;;;;5.10;2.53;;;;;;;1.70;100.00;99845.03;4960398;58;1134537;-68
2023/03/05 14:22:57;;;;;;;4.60;2.63;;;;;;;1.68;100.00;99845.60;4999261;57;1134542;-68
2023/03/05 14:28:19;;;;;;;14.60;3.12;;;;;;;1.65;100.00;99844.45;4956189;57;1134623;-66
2023/03/05 14:33:28;;;;;;;5.43;2.40;;;;;;;1.58;100.00;99853.49;4968039;57;1136906;-67
2023/03/05 14:38:37;;;;;;;4.83;2.43;;;;;;;1.26;100.00;99851.22;5081757;56;1134695;-72
2023/03/05 14:43:43;;;;;;;2.63;1.83;;;;;;;1.00;100.00;99842.09;5085221;56;1134692;-66
2023/03/05 14:48:48;;;;;;;10.87;2.90;;;;;;;0.81;100.00;99851.26;5130255;56;1144130;-68
2023/03/05 14:53:54;;;;;;;11.73;4.70;;;;;;;0.65;100.00;99848.55;5149680;56;1136765;-68
2023/03/05 14:59:00;;;;;;;32.17;9.00;;;;;;;0.58;100.00;99835.92;5131032;55;1136804;-69
2023/03/05 15:04:07;;;;;;;171.60;49.70;;;;;;;0.63;100.00;99839.13;5136502;54;1136660;-69
2023/03/05 15:09:16;;;;;;;11.30;4.65;;;;;;;0.67;100.00;99849.32;5150384;55;1142147;-68
2023/03/05 15:14:21;;;;;;;12.03;5.23;;;;;;;0.67;100.00;99849.32;5160205;55;1136716;-69
2023/03/05 15:19:27;;;;;;;6.25;3.55;;;;;;;0.51;100.00;99857.92;5181768;55;1136659;-67
2023/03/05 15:24:33;;;;;;;7.30;2.70;;;;;;;0.31;100.00;99860.14;5137522;55;1134753;-66
2023/03/05 15:29:39;;;;;;;8.00;3.60;;;;;;;0.16;100.00;99861.69;5147254;55;1134784;-66
2023/03/05 15:34:45;;;;;;;13.73;6.33;;;;;;;0.08;100.00;99857.77;5159917;55;1134784;-67
2023/03/05 15:39:50;;;;;;;22.00;9.80;;;;;;;0.02;100.00;99843.27;5085863;56;1136630;-72
2023/03/05 15:44:56;;;;;;;13.90;4.87;;;;;;;0.09;100.00;99850.35;5098588;55;1136860;-67
2023/03/05 15:50:04;;;;;;;6.90;2.57;;;;;;;0.12;100.00;99843.27;5067343;56;1136682;-66
2023/03/05 15:55:11;;;;;;;5.63;2.40;;;;;;;0.14;100.00;99840.59;5073979;55;1134540;-69
2023/03/05 16:00:20;;;;;;;4.07;1.97;;;;;;;0.12;100.00;99833.32;5100602;55;1134618;-72
2023/03/05 16:05:26;;;;;;;2.90;2.17;;;;;;;0.12;100.00;99828.97;5077732;55;1134563;-64
2023/03/05 16:10:32;;;;;;;10.07;2.60;;;;;;;0.14;100.00;99831.50;5051631;56;1134789;-64
2023/03/05 16:15:40;;;;;;;4.57;2.33;;;;;;;0.14;100.00;99836.70;5076536;55;1136644;-69
2023/03/05 16:20:46;;;;;;;10.37;3.57;;;;;;;0.15;100.00;99834.03;5088858;56;1134720;-67
2023/03/05 16:25:52;;;;;;;8.57;3.70;;;;;;;0.12;100.00;99837.22;5079156;56;1136775;-67
2023/03/05 16:30:59;;;;;;;6.10;3.20;;;;;;;0.11;100.00;99837.67;5084258;56;1134685;-72
2023/03/05 16:36:21;;;;;;;8.67;3.97;;;;;;;0.13;100.00;99840.20;5108883;55;1134823;-67
2023/03/05 16:41:28;;;;;;;34.20;13.93;;;;;;;0.12;100.00;99837.22;5121945;56;1134582;-69
2023/03/05 16:46:33;;;;;;;18.70;7.67;;;;;;;0.13;100.00;99842.81;5116515;55;1138909;-70
2023/03/05 16:51:40;;;;;;;31.87;11.00;;;;;;;0.16;100.00;99843.94;5131572;55;1136749;-69
2023/03/05 16:56:46;;;;;;;26.93;9.73;;;;;;;0.16;100.00;99846.09;5131075;55;1138796;-69
2023/03/05 17:01:52;;;;;;;16.80;6.03;;;;;;;0.14;100.00;99845.80;5151705;55;1136716;-65
2023/03/05 17:06:58;;;;;;;14.47;6.67;;;;;;;0.08;100.00;99847.36;5131924;55;1136705;-64
2023/03/05 17:12:04;;;;;;;16.57;9.10;;;;;;;0.03;100.00;99850.61;5198683;55;1136693;-71
2023/03/05 17:17:10;;;;;;;44.23;16.30;;;;;;;0.05;100.00;99848.80;5218985;55;1136654;-70
2023/03/05 17:22:16;;;;;;;14.55;5.70;;;;;;;0.03;100.00;99851.92;5136174;55;1138843;-68
2023/03/05 17:27:22;;;;;;;11.67;4.67;;;;;;;-0.04;100.00;99859.16;5210663;55;1136794;-71
2023/03/05 17:32:28;;;;;;;18.07;6.17;;;;;;;-0.14;100.00;99860.01;5238742;55;1138887;-66
2023/03/05 17:37:34;;;;;;;14.77;5.57;;;;;;;-0.18;100.00;99851.14;5140852;55;1138878;-68
2023/03/05 17:42:40;;;;;;;15.60;6.87;;;;;;;-0.18;100.00;99856.34;5129919;55;1138721;-67
2023/03/05 17:47:46;;;;;;;17.48;5.03;;;;;;;-0.18;100.00;99849.38;5110013;55;1138848;-71
2023/03/05 17:52:54;;;;;;;13.77;5.00;;;;;;;-0.16;100.00;99847.56;5106046;55;1138737;-70
2023/03/05 17:58:00;;;;;;;18.23;5.87;;;;;;;-0.18;100.00;99852.44;5087683;55;1138797;-68
2023/03/05 18:03:06;;;;;;;17.60;6.67;;;;;;;-0.23;100.00;99858.28;5086714;56;1138704;-69
2023/03/05 18:08:12;;;;;;;16.53;6.07;;;;;;;-0.29;100.00;99852.89;5129637;56;1138923;-69
2023/03/05 18:13:18;;;;;;;43.30;16.65;;;;;;;-0.33;100.00;99854.41;5093971;56;1138937;-70
2023/03/05 18:18:23;;;;;;;54.23;22.77;;;;;;;-0.37;100.00;99851.94;5107060;56;1140822;-69
2023/03/05 18:23:30;;;;;;;53.70;21.83;;;;;;;-0.41;100.00;99847.78;5133384;55;1140806;-70
2023/03/05 18:28:35;;;;;;;55.10;19.30;;;;;;;-0.40;100.00;99849.47;5096765;55;1140835;-69
2023/03/05 18:33:43;;;;;;;36.43;15.03;;;;;;;-0.38;100.00;99854.15;5172760;55;1140935;-73
2023/03/05 18:38:49;;;;;;;29.92;10.78;;;;;;;-0.42;100.00;99851.28;5168584;55;1141094;-67
2023/03/05 18:43:54;;;;;;;19.42;5.72;;;;;;;-0.45;100.00;99857.06;5193100;55;1141059;-68
2023/03/05 18:49:01;;;;;;;19.70;7.60;;;;;;;-0.44;100.00;99852.26;5133166;55;1138945;-66
2023/03/05 18:54:07;;;;;;;12.43;4.57;;;;;;;-0.44;100.00;99850.95;5129016;55;1138834;-67
2023/03/05 18:59:14;;;;;;;14.58;5.90;;;;;;;-0.51;100.00;99854.75;5151871;55;1138852;-68
2023/03/05 19:04:20;;;;;;;13.90;5.28;;;;;;;-0.56;100.00;99847.59;5130052;55;1138730;-67
2023/03/05 19:10:01;;;;;;;10.93;4.63;;;;;;;-0.52;100.00;99842.22;5087210;55;1139741;-70
2023/03/05 19:15:05;;;;;;;20.30;6.83;;;;;;;-0.51;100.00;99843.06;4920855;57;1138835;-69
2023/03/05 19:20:14;;;;;;;19.40;8.60;;;;;;;-0.53;100.00;99839.68;4955577;57;1138820;-71
2023/03/05 19:25:20;;;;;;;21.45;9.23;;;;;;;-0.54;100.00;99840.59;4856313;58;1138783;-70
2023/03/05 19:30:26;;;;;;;12.28;4.72;;;;;;;-0.55;100.00;99840.20;5020277;57;1138989;-68
2023/03/05 19:35:33;;;;;;;12.17;4.40;;;;;;;-0.54;100.00;99831.05;4970496;57;1138835;-70
2023/03/05 19:40:41;;;;;;;15.20;6.77;;;;;;;-0.54;100.00;99829.75;4902007;59;1138822;-71
2023/03/05 19:45:47;;;;;;;18.57;8.30;;;;;;;-0.51;100.00;99810.14;4876377;58;1138822;-71
2023/03/05 19:50:52;;;;;;;17.10;6.93;;;;;;;-0.42;100.00;99825.31;5068546;56;1138941;-66
2023/03/05 19:56:02;;;;;;;18.57;7.23;;;;;;;-0.32;100.00;99823.63;5123833;55;1138969;-70
2023/03/05 20:01:14;;;;;;;18.27;8.30;;;;;;;-0.28;100.00;99821.26;5103053;55;1138856;-68
2023/03/05 20:06:21;;;;;;;37.97;14.70;;;;;;;-0.24;100.00;99822.81;5126519;55;1144084;-68
2023/03/05 20:11:28;;;;;;;78.62;25.68;;;;;;;-0.29;100.00;99822.16;5094750;55;1140733;-72
2023/03/05 20:16:36;;;;;;;105.50;29.13;;;;;;;-0.33;100.00;99818.04;5114498;55;1140793;-68
2023/03/05 20:21:42;;;;;;;100.80;28.73;;;;;;;-0.41;100.00;99816.61;5118658;55;1143068;-67
2023/03/05 20:26:50;;;;;;;83.77;26.57;;;;;;;-0.50;100.00;99816.18;5086048;55;1143176;-69
2023/03/05 20:31:56;;;;;;;100.78;37.58;;;;;;;-0.54;100.00;99820.66;5130267;55;1140785;-67
2023/03/05 20:37:03;;;;;;;173.13;49.57;;;;;;;-0.55;100.00;99818.13;5128820;55;1142848;-69
2023/03/05 20:42:09;;;;;;;348.23;96.60;;;;;;;-0.59;100.00;99817.41;5121341;55;1143031;-70
2023/03/05 20:47:43;;;;;;;274.60;76.30;;;;;;;-0.66;100.00;99810.80;5107566;55;1142870;-67
2023/03/05 20:52:48;;;;;;;163.43;52.33;;;;;;;-0.71;100.00;99817.48;5122847;55;1142922;-69
2023/03/05 20:57:54;;;;;;;256.20;73.53;;;;;;;-0.77;100.00;99811.27;5090491;55;1142937;-66
2023/03/05 21:03:00;;;;;;;195.97;58.57;;;;;;;-0.84;100.00;99807.69;5140856;56;1143328;-67
2023/03/05 21:08:06;;;;;;;283.53;78.90;;;;;;;-0.88;100.00;99806.12;5093875;56;1142985;-66
2023/03/05 21:13:13;;;;;;;321.33;91.57;;;;;;;-0.91;100.00;99803.20;5104558;55;1142873;-66
2023/03/05 21:18:19;;;;;;;251.20;72.20;;;;;;;-0.95;100.00;99797.77;5107956;56;1142941;-69
2023/03/05 21:23:25;;;;;;;164.63;55.40;;;;;;;-1.00;100.00;99794.97;5079487;55;1142839;-69
2023/03/05 21:28:31;;;;;;;180.70;65.93;;;;;;;-1.02;100.00;99796.78;5087806;55;1142785;-70
2023/03/05 21:33:38;;;;;;;152.43;52.53;;;;;;;-1.04;100.00;99795.99;5161034;55;1143065;-67
2023/03/05 21:38:45;;;;;;;154.17;51.40;;;;;;;-1.06;100.00;99792.16;5170607;55;1143026;-71
2023/03/05 21:43:51;;;;;;;140.90;49.77;;;;;;;-1.15;100.00;99786.91;5133148;55;1142964;-68
2023/03/05 21:48:57;;;;;;;151.03;50.33;;;;;;;-1.20;100.00;99791.44;5120334;56;1142953;-69
2023/03/05 21:54:03;;;;;;;158.17;53.73;;;;;;;-1.24;100.00;99787.76;5140615;56;1143016;-70
2023/03/05 21:59:09;;;;;;;126.93;41.37;;;;;;;-1.27;100.00;99790.47;5094881;56;1142913;-69
2023/03/05 22:04:14;;;;;;;102.33;36.73;;;;;;;-1.27;100.00;99783.98;5086231;56;1143158;-68
2023/03/05 22:09:21;;;;;;;84.77;29.73;;;;;;;-1.30;100.00;99778.92;5085240;55;1142967;-67
2023/03/05 22:14:27;;;;;;;57.73;21.67;;;;;;;-1.33;100.00;99778.59;5097418;55;1140937;-69
2023/03/05 22:19:32;;;;;;;65.80;22.57;;;;;;;-1.36;100.00;99768.33;5097159;56;1140934;-66
2023/03/05 22:24:38;;;;;;;47.77;17.00;;;;;;;-1.37;100.00;99772.28;5097023;56;1141148;-67
2023/03/05 22:29:44;;;;;;;50.00;19.37;;;;;;;-1.49;100.00;99768.44;5121568;55;1140740;-64
2023/03/05 22:34:52;;;;;;;45.73;18.17;;;;;;;-1.52;100.00;99760.78;5131231;55;1140770;-69
2023/03/05 22:39:58;;;;;;;49.40;20.90;;;;;;;-1.56;100.00;99752.30;5031442;56;1140786;-67
2023/03/05 22:45:04;;;;;;;53.80;20.23;;;;;;;-1.60;100.00;99757.67;5075616;57;1141026;-69
2023/03/05 22:50:12;;;;;;;60.20;22.30;;;;;;;-1.68;100.00;99751.96;5089563;56;1140823;-68
2023/03/05 22:55:19;;;;;;;50.85;21.45;;;;;;;-1.77;100.00;99748.81;5081664;56;1140965;-68
2023/03/05 23:00:30;;;;;;;61.33;22.93;;;;;;;-1.95;100.00;99752.57;5097058;56;1140767;-69
2023/03/05 23:05:33;;;;;;;64.60;24.40;;;;;;;-2.10;100.00;99744.09;5092015;56;1140714;-67
2023/03/05 23:10:39;;;;;;;74.65;28.15;;;;;;;-2.07;100.00;99747.42;5095655;56;1140784;-67